KIAB/IAB METAR and TAF weather

Enter ICAO airport designator
Station Type Date Time Source
KIAB METAR 2020/01/24 20:56 UTC NOAA

KIAB 242056Z AUTO 33011KT 10SM OVC020 02/M02 A3006 RMK AO2 SLP193 T00221021 57012


Station Type Date Time Source
KIAB Decoded METAR 2020/01/24 20:56 UTC NOAA

McConnell Air Force Base, KS, United States (KIAB) 37-37N 097-16W
Jan 24, 2020 - 03:56 PM EST / 2020.01.24 2056 UTC
Wind: from the NNW (330 degrees) at 13 MPH (11 KT):0
Visibility: 10 mile(s):0
Sky conditions: overcast
Temperature: 36.0 F (2.2 C)
Dew Point: 28.2 F (-2.1 C)
Relative Humidity: 73%
Pressure (altimeter): 30.06 in. Hg (1017 hPa)
Pressure tendency: 0.04 inches (1.2 hPa) lower than three hours ago
ob: KIAB 242056Z AUTO 33011KT 10SM OVC020 02/M02 A3006 RMK AO2 SLP193 T00221021 57012
cycle: 21

Station Type Date Time Source
KIAB TAF 2020/01/24 18:07 UTC NOAA

TAF KIAB 241800Z 2418/2524 33012G18KT 9999 OVC017 QNH3005INS
BECMG 2421/2422 33012KT 9999 SCT020 QNH3005INS
BECMG 2502/2503 VRB06KT 9999 SCT120 QNH3006INS
BECMG 2507/2508 VRB06KT 9999 SCT100 QNH2998INS TX05/2518Z TNM01/2509Z

Example: see airport list